East Randolph, New York
Current Conditions -  °F | °C
As of 6:15 AM on Wednesday 26 Nov 2014 (Local Time) from KJHW Reporting Station
Overcast Overcast  
Wind Chill: 28°   Ceiling: 1700
Heat Index: 28°   Visibility: 10mi
Dew Point: 25°   Wind: 3mph
Humidity: 86%   Direction: 40°NE
Pressure: 30.09"   Gusts: NA
Location:  42.17°N, 78.95°W
Report Text: KJHW 261115Z 04003KT 10SM OVC017 M02/M04 A3009 RMK AO1
Loading
Personal Weather Stations






























Interactive Weather Map New forecast layout! Learn more

10-Day Weather Forecast

Advertisements
Track Severe Weather on mobile